sensor_id;sensor_type;location;lat;lon;timestamp;pressure;altitude;pressure_sealevel;temperature;humidity
32237;BME280;18726;44.732;10.550;2023-03-18T00:01:11;101432.19;;;7.07;100.00
32237;BME280;18726;44.732;10.550;2023-03-18T00:04:14;101433.94;;;6.89;100.00
32237;BME280;18726;44.732;10.550;2023-03-18T00:07:19;101432.72;;;6.82;100.00
32237;BME280;18726;44.732;10.550;2023-03-18T00:10:22;101429.72;;;6.83;100.00
32237;BME280;18726;44.732;10.550;2023-03-18T00:13:26;101429.19;;;6.95;100.00
32237;BME280;18726;44.732;10.550;2023-03-18T00:16:30;101421.72;;;6.92;100.00
32237;BME280;18726;44.732;10.550;2023-03-18T00:19:34;101428.59;;;6.98;100.00
32237;BME280;18726;44.732;10.550;2023-03-18T00:22:38;101424.13;;;6.80;100.00
32237;BME280;18726;44.732;10.550;2023-03-18T00:25:42;101431.06;;;6.58;100.00
32237;BME280;18726;44.732;10.550;2023-03-18T00:28:48;101428.88;;;6.60;100.00
32237;BME280;18726;44.732;10.550;2023-03-18T00:31:52;101418.94;;;6.69;100.00
32237;BME280;18726;44.732;10.550;2023-03-18T00:34:56;101416.66;;;6.63;100.00
32237;BME280;18726;44.732;10.550;2023-03-18T00:38:00;101416.13;;;6.74;100.00
32237;BME280;18726;44.732;10.550;2023-03-18T00:41:06;101416.84;;;6.80;100.00
32237;BME280;18726;44.732;10.550;2023-03-18T00:44:19;101414.31;;;6.84;100.00
32237;BME280;18726;44.732;10.550;2023-03-18T00:47:23;101416.84;;;6.66;100.00
32237;BME280;18726;44.732;10.550;2023-03-18T00:50:26;101414.78;;;6.63;100.00
32237;BME280;18726;44.732;10.550;2023-03-18T00:53:30;101411.66;;;6.56;100.00
32237;BME280;18726;44.732;10.550;2023-03-18T00:56:33;101409.13;;;6.73;100.00
32237;BME280;18726;44.732;10.550;2023-03-18T00:59:38;101404.34;;;6.70;100.00
32237;BME280;18726;44.732;10.550;2023-03-18T01:02:42;101402.84;;;6.64;100.00
32237;BME280;18726;44.732;10.550;2023-03-18T01:05:46;101401.16;;;6.41;100.00
32237;BME280;18726;44.732;10.550;2023-03-18T01:08:49;101401.88;;;6.47;100.00
32237;BME280;18726;44.732;10.550;2023-03-18T01:11:53;101395.16;;;6.44;100.00
32237;BME280;18726;44.732;10.550;2023-03-18T01:14:57;101395.38;;;6.20;100.00
32237;BME280;18726;44.732;10.550;2023-03-18T01:18:01;101395.56;;;6.10;100.00
32237;BME280;18726;44.732;10.550;2023-03-18T01:21:06;101386.00;;;6.31;100.00
32237;BME280;18726;44.732;10.550;2023-03-18T01:24:14;101376.59;;;6.29;100.00
32237;BME280;18726;44.732;10.550;2023-03-18T01:27:18;101380.09;;;6.29;100.00
32237;BME280;18726;44.732;10.550;2023-03-18T01:30:23;101379.19;;;6.20;100.00
32237;BME280;18726;44.732;10.550;2023-03-18T01:33:29;101362.88;;;6.39;100.00
32237;BME280;18726;44.732;10.550;2023-03-18T01:36:32;101355.78;;;6.43;100.00
32237;BME280;18726;44.732;10.550;2023-03-18T01:39:44;101359.50;;;6.20;100.00
32237;BME280;18726;44.732;10.550;2023-03-18T01:42:55;101356.03;;;6.05;100.00
32237;BME280;18726;44.732;10.550;2023-03-18T01:46:01;101360.72;;;6.00;100.00
32237;BME280;18726;44.732;10.550;2023-03-18T01:52:19;101344.22;;;6.15;100.00
32237;BME280;18726;44.732;10.550;2023-03-18T01:55:25;101335.84;;;6.30;100.00
32237;BME280;18726;44.732;10.550;2023-03-18T01:58:31;101336.31;;;6.46;100.00
32237;BME280;18726;44.732;10.550;2023-03-18T02:01:46;101335.72;;;7.07;100.00
32237;BME280;18726;44.732;10.550;2023-03-18T02:04:52;101339.53;;;6.70;100.00
32237;BME280;18726;44.732;10.550;2023-03-18T02:07:57;101333.19;;;6.53;100.00
32237;BME280;18726;44.732;10.550;2023-03-18T02:11:00;101335.19;;;6.61;100.00
32237;BME280;18726;44.732;10.550;2023-03-18T02:14:05;101337.63;;;6.35;100.00
32237;BME280;18726;44.732;10.550;2023-03-18T02:17:10;101344.81;;;6.12;100.00
32237;BME280;18726;44.732;10.550;2023-03-18T02:20:23;101336.00;;;6.06;100.00
32237;BME280;18726;44.732;10.550;2023-03-18T02:23:37;101321.78;;;6.56;100.00
32237;BME280;18726;44.732;10.550;2023-03-18T02:27:12;101330.41;;;6.44;100.00
32237;BME280;18726;44.732;10.550;2023-03-18T02:30:18;101324.25;;;6.30;100.00
32237;BME280;18726;44.732;10.550;2023-03-18T02:33:25;101325.59;;;6.41;100.00
32237;BME280;18726;44.732;10.550;2023-03-18T02:36:31;101322.81;;;6.82;100.00
32237;BME280;18726;44.732;10.550;2023-03-18T02:39:36;101335.03;;;6.02;100.00
32237;BME280;18726;44.732;10.550;2023-03-18T02:42:40;101320.81;;;6.38;100.00
32237;BME280;18726;44.732;10.550;2023-03-18T02:45:47;101320.59;;;6.62;100.00
32237;BME280;18726;44.732;10.550;2023-03-18T02:48:53;101309.16;;;7.01;100.00
32237;BME280;18726;44.732;10.550;2023-03-18T02:51:57;101314.13;;;6.85;100.00
32237;BME280;18726;44.732;10.550;2023-03-18T02:55:00;101326.75;;;6.76;100.00
32237;BME280;18726;44.732;10.550;2023-03-18T02:58:05;101321.31;;;6.90;100.00
32237;BME280;18726;44.732;10.550;2023-03-18T03:01:10;101323.28;;;6.62;100.00
32237;BME280;18726;44.732;10.550;2023-03-18T03:04:14;101318.47;;;6.95;100.00
32237;BME280;18726;44.732;10.550;2023-03-18T03:07:18;101323.13;;;7.25;100.00
32237;BME280;18726;44.732;10.550;2023-03-18T03:10:26;101321.78;;;7.36;100.00
32237;BME280;18726;44.732;10.550;2023-03-18T03:13:29;101316.38;;;7.36;100.00
32237;BME280;18726;44.732;10.550;2023-03-18T03:16:33;101321.53;;;7.24;100.00
32237;BME280;18726;44.732;10.550;2023-03-18T03:19:36;101317.38;;;7.40;100.00
32237;BME280;18726;44.732;10.550;2023-03-18T03:22:40;101334.88;;;6.62;100.00
32237;BME280;18726;44.732;10.550;2023-03-18T03:25:45;101325.44;;;6.73;100.00
32237;BME280;18726;44.732;10.550;2023-03-18T03:28:48;101320.81;;;6.88;100.00
32237;BME280;18726;44.732;10.550;2023-03-18T03:31:52;101324.25;;;7.24;100.00
32237;BME280;18726;44.732;10.550;2023-03-18T03:34:55;101325.84;;;7.48;100.00
32237;BME280;18726;44.732;10.550;2023-03-18T03:37:58;101334.25;;;7.46;100.00
32237;BME280;18726;44.732;10.550;2023-03-18T03:41:02;101332.34;;;7.47;100.00
32237;BME280;18726;44.732;10.550;2023-03-18T03:44:05;101331.50;;;7.68;100.00
32237;BME280;18726;44.732;10.550;2023-03-18T03:47:09;101333.34;;;7.59;100.00
32237;BME280;18726;44.732;10.550;2023-03-18T03:50:13;101329.84;;;7.59;100.00
32237;BME280;18726;44.732;10.550;2023-03-18T03:53:18;101335.97;;;7.42;100.00
32237;BME280;18726;44.732;10.550;2023-03-18T03:56:22;101330.44;;;7.47;100.00
32237;BME280;18726;44.732;10.550;2023-03-18T03:59:25;101330.13;;;7.26;100.00
32237;BME280;18726;44.732;10.550;2023-03-18T04:02:50;101334.94;;;7.07;100.00
32237;BME280;18726;44.732;10.550;2023-03-18T04:05:55;101341.44;;;6.34;100.00
32237;BME280;18726;44.732;10.550;2023-03-18T04:09:02;101344.00;;;5.38;100.00
32237;BME280;18726;44.732;10.550;2023-03-18T04:12:08;101333.25;;;4.44;100.00
32237;BME280;18726;44.732;10.550;2023-03-18T04:15:13;101325.19;;;4.01;100.00
32237;BME280;18726;44.732;10.550;2023-03-18T04:18:18;101326.94;;;3.87;100.00
32237;BME280;18726;44.732;10.550;2023-03-18T04:21:22;101326.44;;;3.85;100.00
32237;BME280;18726;44.732;10.550;2023-03-18T04:24:31;101317.81;;;3.88;100.00
32237;BME280;18726;44.732;10.550;2023-03-18T04:27:35;101319.69;;;3.88;100.00
32237;BME280;18726;44.732;10.550;2023-03-18T04:30:43;101323.75;;;4.09;100.00
32237;BME280;18726;44.732;10.550;2023-03-18T05:40:35;101330.03;;;6.73;100.00
32237;BME280;18726;44.732;10.550;2023-03-18T05:43:49;101338.41;;;6.35;100.00
32237;BME280;18726;44.732;10.550;2023-03-18T05:46:53;101339.19;;;6.36;100.00
32237;BME280;18726;44.732;10.550;2023-03-18T05:50:30;101343.78;;;6.49;100.00
32237;BME280;18726;44.732;10.550;2023-03-18T05:53:36;101345.41;;;6.50;100.00
32237;BME280;18726;44.732;10.550;2023-03-18T05:57:00;101347.81;;;6.88;100.00
32237;BME280;18726;44.732;10.550;2023-03-18T06:00:05;101351.94;;;7.30;100.00
32237;BME280;18726;44.732;10.550;2023-03-18T06:03:24;101352.69;;;8.71;100.00
32237;BME280;18726;44.732;10.550;2023-03-18T06:06:27;101357.78;;;9.33;100.00
32237;BME280;18726;44.732;10.550;2023-03-18T06:09:31;101351.09;;;8.70;98.27
32237;BME280;18726;44.732;10.550;2023-03-18T06:12:38;101356.03;;;8.11;99.51
32237;BME280;18726;44.732;10.550;2023-03-18T06:15:42;101347.81;;;7.55;99.32
32237;BME280;18726;44.732;10.550;2023-03-18T06:18:45;101352.75;;;7.30;100.00
32237;BME280;18726;44.732;10.550;2023-03-18T06:21:54;101355.75;;;7.82;100.00
32237;BME280;18726;44.732;10.550;2023-03-18T06:24:57;101354.94;;;8.21;100.00
32237;BME280;18726;44.732;10.550;2023-03-18T06:28:01;101359.56;;;9.29;100.00
32237;BME280;18726;44.732;10.550;2023-03-18T06:31:07;101357.06;;;11.18;90.12
32237;BME280;18726;44.732;10.550;2023-03-18T06:34:10;101364.66;;;12.51;77.02
32237;BME280;18726;44.732;10.550;2023-03-18T06:37:15;101368.31;;;12.31;71.41
32237;BME280;18726;44.732;10.550;2023-03-18T06:40:21;101368.88;;;12.12;74.47
32237;BME280;18726;44.732;10.550;2023-03-18T06:43:24;101380.84;;;12.84;73.08
32237;BME280;18726;44.732;10.550;2023-03-18T06:46:29;101376.72;;;15.23;62.76
32237;BME280;18726;44.732;10.550;2023-03-18T06:49:34;101381.53;;;17.64;51.24
32237;BME280;18726;44.732;10.550;2023-03-18T06:52:49;101376.81;;;17.98;46.66
32237;BME280;18726;44.732;10.550;2023-03-18T06:55:58;101386.47;;;18.29;47.70
32237;BME280;18726;44.732;10.550;2023-03-18T06:59:10;101381.56;;;19.28;45.05
32237;BME280;18726;44.732;10.550;2023-03-18T07:02:14;101386.03;;;18.23;45.09
32237;BME280;18726;44.732;10.550;2023-03-18T07:05:18;101393.56;;;18.30;44.55
32237;BME280;18726;44.732;10.550;2023-03-18T07:08:23;101392.16;;;18.02;44.33
32237;BME280;18726;44.732;10.550;2023-03-18T07:11:26;101390.09;;;17.92;46.34
32237;BME280;18726;44.732;10.550;2023-03-18T07:14:30;101396.06;;;18.49;46.37
32237;BME280;18726;44.732;10.550;2023-03-18T07:17:34;101389.59;;;20.08;44.12
32237;BME280;18726;44.732;10.550;2023-03-18T07:20:39;101396.09;;;21.31;40.98
32237;BME280;18726;44.732;10.550;2023-03-18T07:23:42;101400.19;;;21.71;41.59
32237;BME280;18726;44.732;10.550;2023-03-18T07:26:46;101412.66;;;23.54;37.58
32237;BME280;18726;44.732;10.550;2023-03-18T07:29:52;101414.75;;;23.74;38.27
32237;BME280;18726;44.732;10.550;2023-03-18T07:32:55;101403.84;;;22.99;38.01
32237;BME280;18726;44.732;10.550;2023-03-18T07:35:59;101403.59;;;23.77;38.27
32237;BME280;18726;44.732;10.550;2023-03-18T07:39:04;101408.25;;;22.93;37.86
32237;BME280;18726;44.732;10.550;2023-03-18T07:42:09;101406.75;;;21.18;43.95
32237;BME280;18726;44.732;10.550;2023-03-18T07:45:12;101407.63;;;22.37;41.14
32237;BME280;18726;44.732;10.550;2023-03-18T07:48:16;101417.38;;;23.58;39.81
32237;BME280;18726;44.732;10.550;2023-03-18T07:51:20;101417.63;;;23.36;42.20
32237;BME280;18726;44.732;10.550;2023-03-18T07:54:23;101430.47;;;23.84;39.71
32237;BME280;18726;44.732;10.550;2023-03-18T07:57:27;101439.00;;;24.47;38.56
32237;BME280;18726;44.732;10.550;2023-03-18T08:00:30;101427.88;;;23.70;40.38
32237;BME280;18726;44.732;10.550;2023-03-18T08:03:34;101425.59;;;22.59;39.98
32237;BME280;18726;44.732;10.550;2023-03-18T08:06:38;101431.25;;;21.23;42.46
32237;BME280;18726;44.732;10.550;2023-03-18T08:09:41;101433.66;;;21.00;44.72
32237;BME280;18726;44.732;10.550;2023-03-18T08:12:44;101436.53;;;21.73;45.76
32237;BME280;18726;44.732;10.550;2023-03-18T08:15:48;101430.25;;;22.69;43.28
32237;BME280;18726;44.732;10.550;2023-03-18T08:18:52;101443.09;;;24.39;40.49
32237;BME280;18726;44.732;10.550;2023-03-18T08:21:55;101439.53;;;25.05;35.78
32237;BME280;18726;44.732;10.550;2023-03-18T08:24:59;101439.06;;;26.63;36.18
32237;BME280;18726;44.732;10.550;2023-03-18T08:28:03;101441.84;;;26.79;34.21
32237;BME280;18726;44.732;10.550;2023-03-18T08:31:09;101437.22;;;27.43;34.38
32237;BME280;18726;44.732;10.550;2023-03-18T08:34:13;101444.84;;;28.44;31.47
32237;BME280;18726;44.732;10.550;2023-03-18T08:37:16;101436.72;;;29.68;30.57
32237;BME280;18726;44.732;10.550;2023-03-18T08:40:20;101437.84;;;32.38;25.99
32237;BME280;18726;44.732;10.550;2023-03-18T08:43:24;101434.81;;;32.27;26.23
32237;BME280;18726;44.732;10.550;2023-03-18T08:46:28;101424.44;;;32.71;26.58
32237;BME280;18726;44.732;10.550;2023-03-18T08:49:31;101422.06;;;30.04;26.00
32237;BME280;18726;44.732;10.550;2023-03-18T08:52:35;101411.06;;;25.73;31.96
32237;BME280;18726;44.732;10.550;2023-03-18T08:55:41;101417.69;;;28.19;30.00
32237;BME280;18726;44.732;10.550;2023-03-18T08:58:44;101419.50;;;30.28;29.16
32237;BME280;18726;44.732;10.550;2023-03-18T09:01:48;101430.06;;;33.39;26.38
32237;BME280;18726;44.732;10.550;2023-03-18T09:04:52;101431.81;;;36.14;23.37
32237;BME280;18726;44.732;10.550;2023-03-18T09:07:56;101423.78;;;36.72;21.86
32237;BME280;18726;44.732;10.550;2023-03-18T09:11:00;101426.00;;;35.23;21.72
32237;BME280;18726;44.732;10.550;2023-03-18T09:14:04;101419.84;;;34.47;23.37
32237;BME280;18726;44.732;10.550;2023-03-18T09:17:08;101432.91;;;36.93;21.23
32237;BME280;18726;44.732;10.550;2023-03-18T09:20:12;101432.94;;;37.48;21.03
32237;BME280;18726;44.732;10.550;2023-03-18T09:23:16;101433.03;;;38.23;20.79
32237;BME280;18726;44.732;10.550;2023-03-18T09:26:20;101427.84;;;38.79;19.78
32237;BME280;18726;44.732;10.550;2023-03-18T09:29:24;101414.47;;;36.49;21.32
32237;BME280;18726;44.732;10.550;2023-03-18T09:32:27;101415.13;;;37.09;20.81
32237;BME280;18726;44.732;10.550;2023-03-18T09:35:31;101414.47;;;36.43;21.46
32237;BME280;18726;44.732;10.550;2023-03-18T09:38:35;101407.03;;;34.98;23.18
32237;BME280;18726;44.732;10.550;2023-03-18T09:41:43;101415.69;;;33.87;24.17
32237;BME280;18726;44.732;10.550;2023-03-18T09:44:52;101417.75;;;32.69;25.31
32237;BME280;18726;44.732;10.550;2023-03-18T09:54:28;101394.16;;;30.59;25.63
32237;BME280;18726;44.732;10.550;2023-03-18T09:57:35;101394.09;;;27.61;28.46
32237;BME280;18726;44.732;10.550;2023-03-18T10:00:40;101389.38;;;26.29;29.00
32237;BME280;18726;44.732;10.550;2023-03-18T10:03:46;101387.84;;;26.12;31.21
32237;BME280;18726;44.732;10.550;2023-03-18T10:06:52;101379.31;;;26.03;30.64
32237;BME280;18726;44.732;10.550;2023-03-18T10:09:59;101381.56;;;26.24;32.43
32237;BME280;18726;44.732;10.550;2023-03-18T10:16:13;101375.06;;;26.14;30.11
32237;BME280;18726;44.732;10.550;2023-03-18T10:19:20;101374.34;;;25.78;31.91
32237;BME280;18726;44.732;10.550;2023-03-18T10:35:25;101366.63;;;23.00;40.13
32237;BME280;18726;44.732;10.550;2023-03-18T10:38:33;101366.44;;;21.94;35.53
32237;BME280;18726;44.732;10.550;2023-03-18T10:41:38;101360.41;;;20.56;37.47
32237;BME280;18726;44.732;10.550;2023-03-18T10:44:42;101359.19;;;21.63;42.14
32237;BME280;18726;44.732;10.550;2023-03-18T10:47:50;101370.66;;;22.92;37.50
32237;BME280;18726;44.732;10.550;2023-03-18T10:54:29;101363.22;;;22.47;35.09
32237;BME280;18726;44.732;10.550;2023-03-18T10:57:34;101365.72;;;21.20;36.22
32237;BME280;18726;44.732;10.550;2023-03-18T11:00:38;101357.22;;;20.65;41.12
32237;BME280;18726;44.732;10.550;2023-03-18T11:06:46;101344.66;;;20.36;38.79
32237;BME280;18726;44.732;10.550;2023-03-18T11:09:51;101347.75;;;20.66;38.72
32237;BME280;18726;44.732;10.550;2023-03-18T11:12:58;101349.41;;;20.49;38.70
32237;BME280;18726;44.732;10.550;2023-03-18T11:16:11;101348.41;;;21.06;38.56
32237;BME280;18726;44.732;10.550;2023-03-18T11:22:33;101341.47;;;20.51;39.70
32237;BME280;18726;44.732;10.550;2023-03-18T11:25:37;101343.50;;;20.40;38.70
32237;BME280;18726;44.732;10.550;2023-03-18T11:28:40;101349.34;;;20.67;38.97
32237;BME280;18726;44.732;10.550;2023-03-18T11:32:02;101341.53;;;20.19;40.20
32237;BME280;18726;44.732;10.550;2023-03-18T11:35:06;101340.75;;;18.61;40.09
32237;BME280;18726;44.732;10.550;2023-03-18T11:38:23;101329.41;;;18.70;41.16
32237;BME280;18726;44.732;10.550;2023-03-18T11:41:29;101324.19;;;19.94;43.44
32237;BME280;18726;44.732;10.550;2023-03-18T11:44:32;101328.59;;;18.66;42.34
32237;BME280;18726;44.732;10.550;2023-03-18T11:47:36;101316.78;;;18.65;43.75
32237;BME280;18726;44.732;10.550;2023-03-18T11:51:29;101315.19;;;18.61;42.97
32237;BME280;18726;44.732;10.550;2023-03-18T12:10:53;101286.44;;;18.58;47.15
32237;BME280;18726;44.732;10.550;2023-03-18T12:17:22;101271.78;;;18.36;41.90
32237;BME280;18726;44.732;10.550;2023-03-18T12:26:44;101265.41;;;17.67;45.33
32237;BME280;18726;44.732;10.550;2023-03-18T12:33:12;101258.25;;;18.06;44.67
32237;BME280;18726;44.732;10.550;2023-03-18T12:45:57;101246.06;;;17.52;42.80
32237;BME280;18726;44.732;10.550;2023-03-18T12:52:07;101224.94;;;17.16;45.15
32237;BME280;18726;44.732;10.550;2023-03-18T12:55:16;101226.78;;;17.49;43.88
32237;BME280;18726;44.732;10.550;2023-03-18T12:58:24;101221.44;;;17.19;42.52
32237;BME280;18726;44.732;10.550;2023-03-18T13:04:38;101221.31;;;17.08;45.77
32237;BME280;18726;44.732;10.550;2023-03-18T13:07:53;101217.38;;;17.06;46.70
32237;BME280;18726;44.732;10.550;2023-03-18T13:11:07;101219.34;;;17.49;44.44
32237;BME280;18726;44.732;10.550;2023-03-18T13:14:26;101218.41;;;17.31;42.89
32237;BME280;18726;44.732;10.550;2023-03-18T13:17:40;101196.44;;;17.35;43.84
32237;BME280;18726;44.732;10.550;2023-03-18T13:20:44;101200.97;;;17.13;43.31
32237;BME280;18726;44.732;10.550;2023-03-18T13:27:18;101211.00;;;16.95;46.74
32237;BME280;18726;44.732;10.550;2023-03-18T13:30:42;101187.72;;;17.22;45.34
32237;BME280;18726;44.732;10.550;2023-03-18T13:37:05;101192.56;;;17.39;45.07
32237;BME280;18726;44.732;10.550;2023-03-18T13:43:18;101180.41;;;17.95;46.57
32237;BME280;18726;44.732;10.550;2023-03-18T13:46:23;101179.41;;;17.59;45.86
32237;BME280;18726;44.732;10.550;2023-03-18T13:49:28;101185.50;;;17.38;45.31
32237;BME280;18726;44.732;10.550;2023-03-18T13:52:33;101176.25;;;17.13;45.76
32237;BME280;18726;44.732;10.550;2023-03-18T13:58:43;101183.88;;;17.34;46.00
32237;BME280;18726;44.732;10.550;2023-03-18T14:01:47;101176.91;;;16.96;45.90
32237;BME280;18726;44.732;10.550;2023-03-18T14:04:51;101183.56;;;16.95;46.19
32237;BME280;18726;44.732;10.550;2023-03-18T14:07:55;101178.63;;;17.14;45.64
32237;BME280;18726;44.732;10.550;2023-03-18T14:17:41;101155.88;;;17.14;47.45
32237;BME280;18726;44.732;10.550;2023-03-18T14:20:51;101159.59;;;17.36;47.56
32237;BME280;18726;44.732;10.550;2023-03-18T14:27:17;101157.81;;;17.10;46.28
32237;BME280;18726;44.732;10.550;2023-03-18T14:33:32;101167.34;;;17.23;49.50
32237;BME280;18726;44.732;10.550;2023-03-18T14:39:46;101161.13;;;17.30;46.21
32237;BME280;18726;44.732;10.550;2023-03-18T14:45:56;101165.13;;;17.43;48.52
32237;BME280;18726;44.732;10.550;2023-03-18T14:49:01;101146.66;;;16.92;50.28
32237;BME280;18726;44.732;10.550;2023-03-18T14:52:22;101145.81;;;16.84;50.14
32237;BME280;18726;44.732;10.550;2023-03-18T14:55:31;101147.34;;;16.82;51.35
32237;BME280;18726;44.732;10.550;2023-03-18T14:58:36;101142.84;;;17.04;48.19
32237;BME280;18726;44.732;10.550;2023-03-18T15:01:40;101142.94;;;17.14;48.49
32237;BME280;18726;44.732;10.550;2023-03-18T15:04:49;101136.09;;;16.94;55.32
32237;BME280;18726;44.732;10.550;2023-03-18T15:07:55;101139.22;;;16.93;50.78
32237;BME280;18726;44.732;10.550;2023-03-18T15:10:58;101144.59;;;16.82;50.20
32237;BME280;18726;44.732;10.550;2023-03-18T15:14:06;101140.41;;;16.92;51.29
32237;BME280;18726;44.732;10.550;2023-03-18T15:17:15;101135.66;;;16.88;50.88
32237;BME280;18726;44.732;10.550;2023-03-18T15:20:19;101141.28;;;17.03;48.94
32237;BME280;18726;44.732;10.550;2023-03-18T15:23:26;101141.22;;;16.96;49.04
32237;BME280;18726;44.732;10.550;2023-03-18T15:26:35;101134.09;;;16.87;48.50
32237;BME280;18726;44.732;10.550;2023-03-18T15:29:44;101132.81;;;16.78;48.78
32237;BME280;18726;44.732;10.550;2023-03-18T15:32:53;101134.56;;;16.60;50.26
32237;BME280;18726;44.732;10.550;2023-03-18T15:36:05;101136.06;;;16.53;51.94
32237;BME280;18726;44.732;10.550;2023-03-18T15:42:21;101128.16;;;16.45;51.39
32237;BME280;18726;44.732;10.550;2023-03-18T15:45:26;101130.47;;;16.43;50.36
32237;BME280;18726;44.732;10.550;2023-03-18T15:51:43;101127.47;;;16.21;52.73
32237;BME280;18726;44.732;10.550;2023-03-18T15:54:49;101132.94;;;16.21;55.24
32237;BME280;18726;44.732;10.550;2023-03-18T15:57:54;101132.38;;;16.05;58.85
32237;BME280;18726;44.732;10.550;2023-03-18T16:00:58;101143.28;;;16.02;57.27
32237;BME280;18726;44.732;10.550;2023-03-18T16:04:05;101136.69;;;16.40;58.56
32237;BME280;18726;44.732;10.550;2023-03-18T16:07:12;101124.16;;;16.39;55.56
32237;BME280;18726;44.732;10.550;2023-03-18T16:10:18;101131.28;;;16.47;55.50
32237;BME280;18726;44.732;10.550;2023-03-18T16:13:25;101132.09;;;16.51;56.44
32237;BME280;18726;44.732;10.550;2023-03-18T16:16:30;101132.53;;;16.19;56.91
32237;BME280;18726;44.732;10.550;2023-03-18T16:19:35;101138.09;;;16.27;53.55
32237;BME280;18726;44.732;10.550;2023-03-18T16:22:40;101132.53;;;16.19;55.17
32237;BME280;18726;44.732;10.550;2023-03-18T16:25:45;101136.56;;;16.29;54.88
32237;BME280;18726;44.732;10.550;2023-03-18T16:28:50;101150.31;;;16.33;52.86
32237;BME280;18726;44.732;10.550;2023-03-18T16:31:53;101152.03;;;16.11;54.37
32237;BME280;18726;44.732;10.550;2023-03-18T16:34:56;101149.66;;;16.09;54.37
32237;BME280;18726;44.732;10.550;2023-03-18T16:38:00;101157.34;;;16.00;55.60
32237;BME280;18726;44.732;10.550;2023-03-18T16:41:03;101146.84;;;16.06;55.06
32237;BME280;18726;44.732;10.550;2023-03-18T16:44:14;101155.59;;;15.85;56.30
32237;BME280;18726;44.732;10.550;2023-03-18T16:47:19;101161.88;;;15.89;55.17
32237;BME280;18726;44.732;10.550;2023-03-18T16:50:27;101160.69;;;15.86;55.93
32237;BME280;18726;44.732;10.550;2023-03-18T16:53:31;101170.03;;;15.82;56.20
32237;BME280;18726;44.732;10.550;2023-03-18T16:56:35;101168.69;;;15.72;56.11
32237;BME280;18726;44.732;10.550;2023-03-18T16:59:45;101173.91;;;15.54;56.57
32237;BME280;18726;44.732;10.550;2023-03-18T17:02:50;101187.25;;;15.56;57.60
32237;BME280;18726;44.732;10.550;2023-03-18T17:05:58;101185.72;;;15.59;57.39
32237;BME280;18726;44.732;10.550;2023-03-18T17:09:01;101183.16;;;15.46;61.50
32237;BME280;18726;44.732;10.550;2023-03-18T17:12:05;101177.34;;;15.25;66.43
32237;BME280;18726;44.732;10.550;2023-03-18T17:15:10;101186.41;;;14.64;69.52
32237;BME280;18726;44.732;10.550;2023-03-18T17:18:19;101186.53;;;14.71;69.54
32237;BME280;18726;44.732;10.550;2023-03-18T17:21:23;101190.41;;;14.70;70.06
32237;BME280;18726;44.732;10.550;2023-03-18T17:24:30;101202.38;;;14.62;71.42
32237;BME280;18726;44.732;10.550;2023-03-18T17:27:37;101205.81;;;14.59;74.32
32237;BME280;18726;44.732;10.550;2023-03-18T17:30:41;101216.69;;;14.56;77.78
32237;BME280;18726;44.732;10.550;2023-03-18T17:33:45;101225.03;;;14.43;76.60
32237;BME280;18726;44.732;10.550;2023-03-18T17:36:48;101229.06;;;14.14;77.57
32237;BME280;18726;44.732;10.550;2023-03-18T17:39:52;101237.78;;;13.85;81.65
32237;BME280;18726;44.732;10.550;2023-03-18T17:42:56;101237.50;;;13.74;82.77
32237;BME280;18726;44.732;10.550;2023-03-18T17:45:59;101249.13;;;13.71;84.82
32237;BME280;18726;44.732;10.550;2023-03-18T17:49:08;101242.00;;;13.67;84.66
32237;BME280;18726;44.732;10.550;2023-03-18T17:52:13;101241.47;;;13.61;83.84
32237;BME280;18726;44.732;10.550;2023-03-18T17:55:21;101230.03;;;13.56;82.91
32237;BME280;18726;44.732;10.550;2023-03-18T17:58:26;101234.53;;;13.48;82.92
32237;BME280;18726;44.732;10.550;2023-03-18T18:01:30;101233.38;;;13.33;78.13
32237;BME280;18726;44.732;10.550;2023-03-18T18:04:33;101234.06;;;13.30;78.18
32237;BME280;18726;44.732;10.550;2023-03-18T18:07:37;101242.34;;;13.18;83.44
32237;BME280;18726;44.732;10.550;2023-03-18T18:10:40;101249.38;;;13.19;94.28
32237;BME280;18726;44.732;10.550;2023-03-18T18:13:43;101257.13;;;13.17;94.14
32237;BME280;18726;44.732;10.550;2023-03-18T18:16:47;101251.25;;;13.03;89.41
32237;BME280;18726;44.732;10.550;2023-03-18T18:19:51;101247.34;;;12.88;100.00
32237;BME280;18726;44.732;10.550;2023-03-18T18:22:54;101246.09;;;12.85;95.46
32237;BME280;18726;44.732;10.550;2023-03-18T18:26:00;101247.00;;;12.90;95.31
32237;BME280;18726;44.732;10.550;2023-03-18T18:29:05;101242.53;;;12.97;96.43
32237;BME280;18726;44.732;10.550;2023-03-18T18:32:13;101231.28;;;12.99;94.08
32237;BME280;18726;44.732;10.550;2023-03-18T18:35:18;101228.38;;;12.92;90.50
32237;BME280;18726;44.732;10.550;2023-03-18T18:38:22;101227.03;;;12.85;90.52
32237;BME280;18726;44.732;10.550;2023-03-18T18:41:27;101237.94;;;12.85;100.00
32237;BME280;18726;44.732;10.550;2023-03-18T18:44:30;101252.84;;;12.76;100.00
32237;BME280;18726;44.732;10.550;2023-03-18T18:47:35;101255.44;;;12.84;100.00
32237;BME280;18726;44.732;10.550;2023-03-18T18:50:39;101264.75;;;12.83;100.00
32237;BME280;18726;44.732;10.550;2023-03-18T18:53:43;101268.81;;;12.90;100.00
32237;BME280;18726;44.732;10.550;2023-03-18T18:56:47;101266.75;;;12.99;100.00
32237;BME280;18726;44.732;10.550;2023-03-18T18:59:51;101269.09;;;13.00;100.00
32237;BME280;18726;44.732;10.550;2023-03-18T19:02:55;101263.91;;;12.95;100.00
32237;BME280;18726;44.732;10.550;2023-03-18T19:05:59;101273.59;;;12.93;100.00